sensor_id;sensor_type;location;lat;lon;timestamp;P1;durP1;ratioP1;P2;durP2;ratioP2
53503;SDS011;39387;50.998;22.340;2023-06-14T00:02:24;3.17;;;2.33;;
53503;SDS011;39387;50.998;22.340;2023-06-14T00:04:52;2.38;;;2.00;;
53503;SDS011;39387;50.998;22.340;2023-06-14T00:07:21;2.90;;;2.20;;
53503;SDS011;39387;50.998;22.340;2023-06-14T00:10:00;2.05;;;1.55;;
53503;SDS011;39387;50.998;22.340;2023-06-14T00:12:28;2.55;;;2.20;;
53503;SDS011;39387;50.998;22.340;2023-06-14T00:14:56;2.72;;;1.85;;
53503;SDS011;39387;50.998;22.340;2023-06-14T00:17:23;2.47;;;2.00;;
53503;SDS011;39387;50.998;22.340;2023-06-14T00:19:55;2.42;;;2.05;;
53503;SDS011;39387;50.998;22.340;2023-06-14T00:22:23;2.45;;;1.80;;
53503;SDS011;39387;50.998;22.340;2023-06-14T00:24:51;2.67;;;2.25;;
53503;SDS011;39387;50.998;22.340;2023-06-14T00:27:18;2.97;;;2.00;;
53503;SDS011;39387;50.998;22.340;2023-06-14T00:29:47;2.75;;;2.20;;
53503;SDS011;39387;50.998;22.340;2023-06-14T00:32:15;2.58;;;1.67;;
53503;SDS011;39387;50.998;22.340;2023-06-14T00:34:42;2.17;;;1.83;;
53503;SDS011;39387;50.998;22.340;2023-06-14T00:37:10;2.63;;;2.22;;
53503;SDS011;39387;50.998;22.340;2023-06-14T00:39:37;1.58;;;1.48;;
53503;SDS011;39387;50.998;22.340;2023-06-14T00:42:05;3.15;;;2.10;;
53503;SDS011;39387;50.998;22.340;2023-06-14T00:44:33;2.85;;;1.90;;
53503;SDS011;39387;50.998;22.340;2023-06-14T00:47:02;2.58;;;2.05;;
53503;SDS011;39387;50.998;22.340;2023-06-14T00:49:29;3.10;;;2.13;;
53503;SDS011;39387;50.998;22.340;2023-06-14T00:51:57;3.15;;;2.30;;
53503;SDS011;39387;50.998;22.340;2023-06-14T00:54:25;4.03;;;2.30;;
53503;SDS011;39387;50.998;22.340;2023-06-14T00:56:52;2.30;;;2.10;;
53503;SDS011;39387;50.998;22.340;2023-06-14T00:59:19;3.40;;;2.38;;
53503;SDS011;39387;50.998;22.340;2023-06-14T01:01:46;2.58;;;2.00;;
53503;SDS011;39387;50.998;22.340;2023-06-14T01:04:15;3.10;;;2.25;;
53503;SDS011;39387;50.998;22.340;2023-06-14T01:06:44;2.63;;;2.13;;
53503;SDS011;39387;50.998;22.340;2023-06-14T01:09:18;2.80;;;1.80;;
53503;SDS011;39387;50.998;22.340;2023-06-14T01:11:53;3.55;;;2.10;;
53503;SDS011;39387;50.998;22.340;2023-06-14T01:14:25;2.00;;;1.63;;
53503;SDS011;39387;50.998;22.340;2023-06-14T01:16:53;3.55;;;1.95;;
53503;SDS011;39387;50.998;22.340;2023-06-14T01:19:23;2.53;;;1.92;;
53503;SDS011;39387;50.998;22.340;2023-06-14T01:21:51;2.35;;;1.80;;
53503;SDS011;39387;50.998;22.340;2023-06-14T01:24:20;2.50;;;1.83;;
53503;SDS011;39387;50.998;22.340;2023-06-14T01:26:51;2.67;;;2.00;;
53503;SDS011;39387;50.998;22.340;2023-06-14T01:31:48;2.00;;;1.60;;
53503;SDS011;39387;50.998;22.340;2023-06-14T01:34:16;2.78;;;1.85;;
53503;SDS011;39387;50.998;22.340;2023-06-14T01:36:44;2.45;;;1.83;;
53503;SDS011;39387;50.998;22.340;2023-06-14T01:39:11;3.22;;;2.08;;
53503;SDS011;39387;50.998;22.340;2023-06-14T01:41:42;4.22;;;2.17;;
53503;SDS011;39387;50.998;22.340;2023-06-14T01:44:10;3.85;;;2.35;;
53503;SDS011;39387;50.998;22.340;2023-06-14T01:46:39;3.88;;;2.40;;
53503;SDS011;39387;50.998;22.340;2023-06-14T01:49:08;3.80;;;2.67;;
53503;SDS011;39387;50.998;22.340;2023-06-14T01:51:35;3.47;;;2.60;;
53503;SDS011;39387;50.998;22.340;2023-06-14T01:54:02;5.15;;;2.22;;
53503;SDS011;39387;50.998;22.340;2023-06-14T01:56:30;2.72;;;2.03;;
53503;SDS011;39387;50.998;22.340;2023-06-14T01:58:59;4.10;;;2.80;;
53503;SDS011;39387;50.998;22.340;2023-06-14T02:01:27;3.15;;;2.40;;
53503;SDS011;39387;50.998;22.340;2023-06-14T02:03:54;3.85;;;2.63;;
53503;SDS011;39387;50.998;22.340;2023-06-14T02:06:21;3.72;;;2.25;;
53503;SDS011;39387;50.998;22.340;2023-06-14T02:08:49;4.07;;;2.90;;
53503;SDS011;39387;50.998;22.340;2023-06-14T02:11:16;3.15;;;2.85;;
53503;SDS011;39387;50.998;22.340;2023-06-14T02:13:44;3.47;;;2.67;;
53503;SDS011;39387;50.998;22.340;2023-06-14T02:16:12;4.60;;;2.88;;
53503;SDS011;39387;50.998;22.340;2023-06-14T02:18:40;4.28;;;2.80;;
53503;SDS011;39387;50.998;22.340;2023-06-14T02:21:07;4.57;;;2.97;;
53503;SDS011;39387;50.998;22.340;2023-06-14T02:23:35;4.63;;;3.03;;
53503;SDS011;39387;50.998;22.340;2023-06-14T02:26:02;3.85;;;2.70;;
53503;SDS011;39387;50.998;22.340;2023-06-14T02:28:29;4.10;;;2.50;;
53503;SDS011;39387;50.998;22.340;2023-06-14T02:30:57;4.22;;;3.17;;
53503;SDS011;39387;50.998;22.340;2023-06-14T02:33:26;3.45;;;2.55;;
53503;SDS011;39387;50.998;22.340;2023-06-14T02:35:53;3.58;;;2.65;;
53503;SDS011;39387;50.998;22.340;2023-06-14T02:38:22;2.75;;;2.33;;
53503;SDS011;39387;50.998;22.340;2023-06-14T02:40:49;2.97;;;2.50;;
53503;SDS011;39387;50.998;22.340;2023-06-14T02:43:16;4.55;;;2.65;;
53503;SDS011;39387;50.998;22.340;2023-06-14T02:45:44;5.13;;;2.70;;
53503;SDS011;39387;50.998;22.340;2023-06-14T02:48:11;5.10;;;2.92;;
53503;SDS011;39387;50.998;22.340;2023-06-14T02:50:40;3.20;;;2.50;;
53503;SDS011;39387;50.998;22.340;2023-06-14T02:53:07;4.50;;;2.58;;
53503;SDS011;39387;50.998;22.340;2023-06-14T02:55:35;4.28;;;2.63;;
53503;SDS011;39387;50.998;22.340;2023-06-14T02:58:05;3.17;;;2.65;;
53503;SDS011;39387;50.998;22.340;2023-06-14T03:00:32;3.65;;;2.63;;
53503;SDS011;39387;50.998;22.340;2023-06-14T03:03:01;3.55;;;2.88;;
53503;SDS011;39387;50.998;22.340;2023-06-14T03:05:30;3.25;;;2.33;;
53503;SDS011;39387;50.998;22.340;2023-06-14T03:08:00;2.22;;;2.03;;
53503;SDS011;39387;50.998;22.340;2023-06-14T03:10:28;2.80;;;2.35;;
53503;SDS011;39387;50.998;22.340;2023-06-14T03:12:55;3.10;;;2.30;;
53503;SDS011;39387;50.998;22.340;2023-06-14T03:15:22;3.13;;;2.40;;
53503;SDS011;39387;50.998;22.340;2023-06-14T03:17:50;3.30;;;2.78;;
53503;SDS011;39387;50.998;22.340;2023-06-14T03:20:19;4.60;;;2.60;;
53503;SDS011;39387;50.998;22.340;2023-06-14T03:22:47;3.97;;;2.75;;
53503;SDS011;39387;50.998;22.340;2023-06-14T03:25:15;5.20;;;2.72;;
53503;SDS011;39387;50.998;22.340;2023-06-14T03:27:44;6.13;;;3.05;;
53503;SDS011;39387;50.998;22.340;2023-06-14T03:30:12;3.00;;;2.60;;
53503;SDS011;39387;50.998;22.340;2023-06-14T03:32:39;4.03;;;3.10;;
53503;SDS011;39387;50.998;22.340;2023-06-14T03:35:07;3.45;;;2.70;;
53503;SDS011;39387;50.998;22.340;2023-06-14T03:37:42;2.75;;;2.30;;
53503;SDS011;39387;50.998;22.340;2023-06-14T03:40:10;3.10;;;2.67;;
53503;SDS011;39387;50.998;22.340;2023-06-14T03:42:40;3.03;;;2.30;;
53503;SDS011;39387;50.998;22.340;2023-06-14T03:45:07;4.30;;;2.22;;
53503;SDS011;39387;50.998;22.340;2023-06-14T03:47:35;4.22;;;2.28;;
53503;SDS011;39387;50.998;22.340;2023-06-14T03:50:03;2.95;;;2.33;;
53503;SDS011;39387;50.998;22.340;2023-06-14T03:52:31;3.17;;;2.60;;
53503;SDS011;39387;50.998;22.340;2023-06-14T03:55:03;3.95;;;2.63;;
53503;SDS011;39387;50.998;22.340;2023-06-14T03:57:31;3.50;;;2.50;;
53503;SDS011;39387;50.998;22.340;2023-06-14T03:59:59;3.58;;;2.85;;
53503;SDS011;39387;50.998;22.340;2023-06-14T04:02:27;3.47;;;2.97;;
53503;SDS011;39387;50.998;22.340;2023-06-14T04:04:55;2.55;;;2.03;;
53503;SDS011;39387;50.998;22.340;2023-06-14T04:07:22;5.18;;;2.20;;
53503;SDS011;39387;50.998;22.340;2023-06-14T04:09:50;3.10;;;2.45;;
53503;SDS011;39387;50.998;22.340;2023-06-14T04:12:18;4.25;;;2.40;;
53503;SDS011;39387;50.998;22.340;2023-06-14T04:14:45;4.68;;;2.40;;
53503;SDS011;39387;50.998;22.340;2023-06-14T04:17:14;3.22;;;2.33;;
53503;SDS011;39387;50.998;22.340;2023-06-14T04:19:41;4.07;;;2.30;;
53503;SDS011;39387;50.998;22.340;2023-06-14T04:22:09;3.38;;;2.15;;
53503;SDS011;39387;50.998;22.340;2023-06-14T04:24:36;2.30;;;2.10;;
53503;SDS011;39387;50.998;22.340;2023-06-14T04:27:04;2.50;;;2.30;;
53503;SDS011;39387;50.998;22.340;2023-06-14T04:29:32;3.20;;;2.45;;
53503;SDS011;39387;50.998;22.340;2023-06-14T04:31:59;2.42;;;2.10;;
53503;SDS011;39387;50.998;22.340;2023-06-14T04:34:28;3.85;;;2.50;;
53503;SDS011;39387;50.998;22.340;2023-06-14T04:36:57;2.30;;;2.00;;
53503;SDS011;39387;50.998;22.340;2023-06-14T04:39:26;3.30;;;2.83;;
53503;SDS011;39387;50.998;22.340;2023-06-14T04:41:54;4.25;;;2.40;;
53503;SDS011;39387;50.998;22.340;2023-06-14T04:44:26;2.83;;;2.10;;
53503;SDS011;39387;50.998;22.340;2023-06-14T04:46:57;3.03;;;2.10;;
53503;SDS011;39387;50.998;22.340;2023-06-14T04:49:25;2.55;;;2.10;;
53503;SDS011;39387;50.998;22.340;2023-06-14T04:51:58;2.78;;;2.13;;
53503;SDS011;39387;50.998;22.340;2023-06-14T04:54:26;3.47;;;1.92;;
53503;SDS011;39387;50.998;22.340;2023-06-14T04:56:57;2.85;;;2.05;;
53503;SDS011;39387;50.998;22.340;2023-06-14T04:59:25;2.45;;;1.80;;
53503;SDS011;39387;50.998;22.340;2023-06-14T05:01:52;2.00;;;1.80;;
53503;SDS011;39387;50.998;22.340;2023-06-14T05:04:22;2.47;;;2.13;;
53503;SDS011;39387;50.998;22.340;2023-06-14T05:06:51;2.50;;;2.20;;
53503;SDS011;39387;50.998;22.340;2023-06-14T05:09:21;3.40;;;1.80;;
53503;SDS011;39387;50.998;22.340;2023-06-14T05:11:49;2.45;;;2.00;;
53503;SDS011;39387;50.998;22.340;2023-06-14T05:14:16;2.10;;;1.67;;
53503;SDS011;39387;50.998;22.340;2023-06-14T05:16:44;1.70;;;1.60;;
53503;SDS011;39387;50.998;22.340;2023-06-14T05:19:14;1.77;;;1.42;;
53503;SDS011;39387;50.998;22.340;2023-06-14T05:21:44;2.00;;;1.73;;
53503;SDS011;39387;50.998;22.340;2023-06-14T05:24:13;1.98;;;1.75;;
53503;SDS011;39387;50.998;22.340;2023-06-14T05:26:42;2.25;;;1.70;;
53503;SDS011;39387;50.998;22.340;2023-06-14T05:29:09;1.98;;;1.70;;
53503;SDS011;39387;50.998;22.340;2023-06-14T05:31:37;1.85;;;1.58;;
53503;SDS011;39387;50.998;22.340;2023-06-14T05:34:04;2.90;;;1.70;;
53503;SDS011;39387;50.998;22.340;2023-06-14T05:36:32;2.95;;;1.90;;
53503;SDS011;39387;50.998;22.340;2023-06-14T05:38:59;2.63;;;1.63;;
53503;SDS011;39387;50.998;22.340;2023-06-14T05:41:29;1.70;;;1.60;;
53503;SDS011;39387;50.998;22.340;2023-06-14T05:43:57;2.75;;;1.70;;
53503;SDS011;39387;50.998;22.340;2023-06-14T05:46:26;3.55;;;1.65;;
53503;SDS011;39387;50.998;22.340;2023-06-14T05:48:53;2.22;;;1.80;;
53503;SDS011;39387;50.998;22.340;2023-06-14T05:51:22;2.47;;;1.90;;
53503;SDS011;39387;50.998;22.340;2023-06-14T05:53:50;1.90;;;1.45;;
53503;SDS011;39387;50.998;22.340;2023-06-14T05:56:18;1.90;;;1.60;;
53503;SDS011;39387;50.998;22.340;2023-06-14T05:58:45;2.08;;;1.65;;
53503;SDS011;39387;50.998;22.340;2023-06-14T06:01:15;2.20;;;1.50;;
53503;SDS011;39387;50.998;22.340;2023-06-14T06:03:42;2.00;;;1.60;;
53503;SDS011;39387;50.998;22.340;2023-06-14T06:06:12;2.03;;;1.83;;
53503;SDS011;39387;50.998;22.340;2023-06-14T06:08:39;2.38;;;1.90;;
53503;SDS011;39387;50.998;22.340;2023-06-14T06:11:08;2.22;;;1.90;;
53503;SDS011;39387;50.998;22.340;2023-06-14T06:13:36;2.75;;;1.80;;
53503;SDS011;39387;50.998;22.340;2023-06-14T06:16:04;3.05;;;1.98;;
53503;SDS011;39387;50.998;22.340;2023-06-14T06:18:33;3.70;;;2.28;;
53503;SDS011;39387;50.998;22.340;2023-06-14T06:21:01;2.00;;;1.80;;
53503;SDS011;39387;50.998;22.340;2023-06-14T06:23:30;1.75;;;1.63;;
53503;SDS011;39387;50.998;22.340;2023-06-14T06:25:57;2.38;;;1.67;;
53503;SDS011;39387;50.998;22.340;2023-06-14T06:28:25;1.85;;;1.65;;
53503;SDS011;39387;50.998;22.340;2023-06-14T06:30:52;2.30;;;1.95;;
53503;SDS011;39387;50.998;22.340;2023-06-14T06:33:20;2.33;;;2.00;;
53503;SDS011;39387;50.998;22.340;2023-06-14T06:35:49;1.90;;;1.70;;
53503;SDS011;39387;50.998;22.340;2023-06-14T06:38:16;4.28;;;2.10;;
53503;SDS011;39387;50.998;22.340;2023-06-14T06:40:44;2.95;;;2.10;;
53503;SDS011;39387;50.998;22.340;2023-06-14T06:43:11;2.88;;;2.03;;
53503;SDS011;39387;50.998;22.340;2023-06-14T06:45:40;2.10;;;1.85;;
53503;SDS011;39387;50.998;22.340;2023-06-14T06:48:07;3.10;;;1.80;;
53503;SDS011;39387;50.998;22.340;2023-06-14T06:50:36;2.55;;;2.20;;
53503;SDS011;39387;50.998;22.340;2023-06-14T06:53:04;4.03;;;2.22;;
53503;SDS011;39387;50.998;22.340;2023-06-14T06:55:34;3.88;;;2.47;;
53503;SDS011;39387;50.998;22.340;2023-06-14T06:58:01;2.25;;;1.90;;
53503;SDS011;39387;50.998;22.340;2023-06-14T07:00:30;2.83;;;1.88;;
53503;SDS011;39387;50.998;22.340;2023-06-14T07:02:57;2.33;;;1.90;;
53503;SDS011;39387;50.998;22.340;2023-06-14T07:05:25;2.20;;;1.83;;
53503;SDS011;39387;50.998;22.340;2023-06-14T07:07:52;3.33;;;2.15;;
53503;SDS011;39387;50.998;22.340;2023-06-14T07:10:21;2.20;;;2.00;;
53503;SDS011;39387;50.998;22.340;2023-06-14T07:12:50;3.10;;;1.83;;
53503;SDS011;39387;50.998;22.340;2023-06-14T07:15:17;5.05;;;2.75;;
53503;SDS011;39387;50.998;22.340;2023-06-14T07:17:45;3.22;;;2.47;;
53503;SDS011;39387;50.998;22.340;2023-06-14T07:20:13;3.95;;;2.67;;
53503;SDS011;39387;50.998;22.340;2023-06-14T07:22:41;3.20;;;2.45;;
53503;SDS011;39387;50.998;22.340;2023-06-14T07:25:09;3.65;;;2.53;;
53503;SDS011;39387;50.998;22.340;2023-06-14T07:27:40;3.13;;;2.13;;
53503;SDS011;39387;50.998;22.340;2023-06-14T07:30:08;4.05;;;2.33;;
53503;SDS011;39387;50.998;22.340;2023-06-14T07:32:36;2.83;;;2.30;;
53503;SDS011;39387;50.998;22.340;2023-06-14T07:35:04;3.17;;;2.40;;
53503;SDS011;39387;50.998;22.340;2023-06-14T07:37:32;4.05;;;3.50;;
53503;SDS011;39387;50.998;22.340;2023-06-14T07:39:59;4.63;;;3.30;;
53503;SDS011;39387;50.998;22.340;2023-06-14T07:42:30;4.35;;;3.20;;
53503;SDS011;39387;50.998;22.340;2023-06-14T07:44:58;3.15;;;2.70;;
53503;SDS011;39387;50.998;22.340;2023-06-14T07:47:26;4.22;;;2.92;;
53503;SDS011;39387;50.998;22.340;2023-06-14T07:49:53;3.17;;;2.40;;
53503;SDS011;39387;50.998;22.340;2023-06-14T07:52:21;2.33;;;2.10;;
53503;SDS011;39387;50.998;22.340;2023-06-14T07:54:49;2.97;;;2.10;;
53503;SDS011;39387;50.998;22.340;2023-06-14T07:57:16;2.55;;;2.20;;
53503;SDS011;39387;50.998;22.340;2023-06-14T07:59:45;2.30;;;2.10;;
53503;SDS011;39387;50.998;22.340;2023-06-14T08:02:14;2.35;;;1.88;;
53503;SDS011;39387;50.998;22.340;2023-06-14T08:04:42;2.88;;;2.30;;
53503;SDS011;39387;50.998;22.340;2023-06-14T08:07:09;2.38;;;2.17;;
53503;SDS011;39387;50.998;22.340;2023-06-14T08:09:38;2.50;;;2.30;;
53503;SDS011;39387;50.998;22.340;2023-06-14T08:12:06;2.50;;;2.30;;
53503;SDS011;39387;50.998;22.340;2023-06-14T08:14:35;3.23;;;2.87;;
53503;SDS011;39387;50.998;22.340;2023-06-14T08:17:03;2.50;;;2.28;;
53503;SDS011;39387;50.998;22.340;2023-06-14T08:19:33;4.05;;;2.70;;
53503;SDS011;39387;50.998;22.340;2023-06-14T08:22:00;3.08;;;2.70;;
53503;SDS011;39387;50.998;22.340;2023-06-14T08:24:27;2.90;;;2.67;;
53503;SDS011;39387;50.998;22.340;2023-06-14T08:26:55;4.05;;;2.13;;
53503;SDS011;39387;50.998;22.340;2023-06-14T08:29:23;2.47;;;2.28;;
53503;SDS011;39387;50.998;22.340;2023-06-14T08:31:55;3.08;;;2.63;;
53503;SDS011;39387;50.998;22.340;2023-06-14T08:34:22;2.72;;;2.40;;
53503;SDS011;39387;50.998;22.340;2023-06-14T08:36:51;2.40;;;2.20;;
53503;SDS011;39387;50.998;22.340;2023-06-14T08:39:19;4.38;;;2.75;;
53503;SDS011;39387;50.998;22.340;2023-06-14T08:41:47;3.08;;;2.60;;
53503;SDS011;39387;50.998;22.340;2023-06-14T08:44:15;4.10;;;2.38;;
53503;SDS011;39387;50.998;22.340;2023-06-14T08:46:43;2.35;;;2.15;;
53503;SDS011;39387;50.998;22.340;2023-06-14T08:49:11;3.38;;;2.40;;
53503;SDS011;39387;50.998;22.340;2023-06-14T08:51:39;2.33;;;2.10;;
53503;SDS011;39387;50.998;22.340;2023-06-14T08:54:09;3.47;;;2.58;;
53503;SDS011;39387;50.998;22.340;2023-06-14T08:56:37;2.85;;;2.45;;
53503;SDS011;39387;50.998;22.340;2023-06-14T08:59:07;2.42;;;2.22;;
53503;SDS011;39387;50.998;22.340;2023-06-14T09:01:36;2.75;;;2.47;;
53503;SDS011;39387;50.998;22.340;2023-06-14T09:04:04;3.05;;;2.30;;
53503;SDS011;39387;50.998;22.340;2023-06-14T09:06:32;4.28;;;2.60;;
53503;SDS011;39387;50.998;22.340;2023-06-14T09:08:59;2.67;;;2.47;;
53503;SDS011;39387;50.998;22.340;2023-06-14T09:11:29;2.80;;;2.58;;
53503;SDS011;39387;50.998;22.340;2023-06-14T09:13:57;2.70;;;2.45;;
53503;SDS011;39387;50.998;22.340;2023-06-14T09:16:25;2.83;;;2.47;;
53503;SDS011;39387;50.998;22.340;2023-06-14T09:18:53;2.70;;;2.30;;
53503;SDS011;39387;50.998;22.340;2023-06-14T09:21:20;4.28;;;2.55;;
53503;SDS011;39387;50.998;22.340;2023-06-14T09:23:48;2.95;;;2.63;;
53503;SDS011;39387;50.998;22.340;2023-06-14T09:26:15;2.63;;;2.40;;
53503;SDS011;39387;50.998;22.340;2023-06-14T09:28:47;2.55;;;2.35;;
53503;SDS011;39387;50.998;22.340;2023-06-14T09:31:15;3.42;;;2.63;;
53503;SDS011;39387;50.998;22.340;2023-06-14T09:33:44;3.10;;;2.80;;
53503;SDS011;39387;50.998;22.340;2023-06-14T09:36:15;2.63;;;2.42;;
53503;SDS011;39387;50.998;22.340;2023-06-14T09:38:51;3.05;;;2.72;;
53503;SDS011;39387;50.998;22.340;2023-06-14T09:41:19;4.78;;;2.70;;
53503;SDS011;39387;50.998;22.340;2023-06-14T09:43:48;3.08;;;2.70;;
53503;SDS011;39387;50.998;22.340;2023-06-14T09:46:15;3.33;;;2.50;;
53503;SDS011;39387;50.998;22.340;2023-06-14T09:48:43;2.90;;;2.70;;
53503;SDS011;39387;50.998;22.340;2023-06-14T09:51:10;3.67;;;2.50;;
53503;SDS011;39387;50.998;22.340;2023-06-14T09:56:08;2.40;;;2.20;;
53503;SDS011;39387;50.998;22.340;2023-06-14T09:58:36;2.47;;;2.25;;
53503;SDS011;39387;50.998;22.340;2023-06-14T10:01:08;3.03;;;2.60;;
53503;SDS011;39387;50.998;22.340;2023-06-14T10:03:39;2.58;;;2.00;;
53503;SDS011;39387;50.998;22.340;2023-06-14T10:06:07;2.53;;;2.10;;
53503;SDS011;39387;50.998;22.340;2023-06-14T10:08:36;2.55;;;2.35;;
53503;SDS011;39387;50.998;22.340;2023-06-14T10:11:03;2.67;;;2.30;;
53503;SDS011;39387;50.998;22.340;2023-06-14T10:13:31;2.58;;;2.38;;
53503;SDS011;39387;50.998;22.340;2023-06-14T10:16:01;2.70;;;2.22;;
53503;SDS011;39387;50.998;22.340;2023-06-14T10:18:38;2.42;;;2.20;;
53503;SDS011;39387;50.998;22.340;2023-06-14T10:21:13;2.53;;;2.13;;
53503;SDS011;39387;50.998;22.340;2023-06-14T10:23:44;2.20;;;1.90;;
53503;SDS011;39387;50.998;22.340;2023-06-14T10:26:19;2.85;;;2.28;;
53503;SDS011;39387;50.998;22.340;2023-06-14T10:28:58;2.47;;;2.22;;
53503;SDS011;39387;50.998;22.340;2023-06-14T10:31:42;2.80;;;2.10;;
53503;SDS011;39387;50.998;22.340;2023-06-14T10:34:11;3.10;;;2.25;;
53503;SDS011;39387;50.998;22.340;2023-06-14T10:36:41;2.60;;;2.40;;
53503;SDS011;39387;50.998;22.340;2023-06-14T10:39:10;2.92;;;2.30;;
53503;SDS011;39387;50.998;22.340;2023-06-14T10:41:42;3.10;;;2.55;;
53503;SDS011;39387;50.998;22.340;2023-06-14T10:47:07;2.40;;;2.20;;
53503;SDS011;39387;50.998;22.340;2023-06-14T10:49:38;3.27;;;2.53;;
53503;SDS011;39387;50.998;22.340;2023-06-14T10:52:10;3.10;;;2.60;;
53503;SDS011;39387;50.998;22.340;2023-06-14T10:57:30;2.75;;;2.55;;
53503;SDS011;39387;50.998;22.340;2023-06-14T10:59:58;2.50;;;2.30;;
53503;SDS011;39387;50.998;22.340;2023-06-14T11:05:30;2.28;;;2.08;;
53503;SDS011;39387;50.998;22.340;2023-06-14T11:08:13;2.50;;;2.30;;
53503;SDS011;39387;50.998;22.340;2023-06-14T11:10:46;2.47;;;2.13;;
53503;SDS011;39387;50.998;22.340;2023-06-14T11:13:15;3.97;;;1.98;;
53503;SDS011;39387;50.998;22.340;2023-06-14T11:15:44;2.42;;;2.10;;
53503;SDS011;39387;50.998;22.340;2023-06-14T11:18:13;2.35;;;2.00;;
53503;SDS011;39387;50.998;22.340;2023-06-14T11:20:45;2.67;;;1.90;;
53503;SDS011;39387;50.998;22.340;2023-06-14T11:23:13;3.03;;;2.38;;
53503;SDS011;39387;50.998;22.340;2023-06-14T11:25:40;2.60;;;2.33;;
53503;SDS011;39387;50.998;22.340;2023-06-14T11:28:07;2.60;;;2.40;;
53503;SDS011;39387;50.998;22.340;2023-06-14T11:30:35;3.47;;;2.10;;
53503;SDS011;39387;50.998;22.340;2023-06-14T11:33:02;2.22;;;2.03;;
53503;SDS011;39387;50.998;22.340;2023-06-14T11:35:30;2.40;;;2.20;;
53503;SDS011;39387;50.998;22.340;2023-06-14T11:38:01;2.15;;;1.95;;
53503;SDS011;39387;50.998;22.340;2023-06-14T11:42:59;2.42;;;1.88;;
53503;SDS011;39387;50.998;22.340;2023-06-14T11:45:28;3.70;;;2.20;;
53503;SDS011;39387;50.998;22.340;2023-06-14T11:47:56;2.55;;;2.35;;
53503;SDS011;39387;50.998;22.340;2023-06-14T11:50:24;3.55;;;2.00;;
53503;SDS011;39387;50.998;22.340;2023-06-14T11:52:52;2.38;;;2.00;;
53503;SDS011;39387;50.998;22.340;2023-06-14T11:55:22;2.63;;;1.95;;
53503;SDS011;39387;50.998;22.340;2023-06-14T11:57:49;2.83;;;2.33;;
53503;SDS011;39387;50.998;22.340;2023-06-14T12:00:18;3.60;;;2.40;;
53503;SDS011;39387;50.998;22.340;2023-06-14T12:02:53;2.90;;;2.30;;
53503;SDS011;39387;50.998;22.340;2023-06-14T12:05:21;2.58;;;2.35;;
53503;SDS011;39387;50.998;22.340;2023-06-14T12:07:49;2.42;;;2.22;;
53503;SDS011;39387;50.998;22.340;2023-06-14T12:10:19;2.63;;;2.30;;
53503;SDS011;39387;50.998;22.340;2023-06-14T12:12:48;2.45;;;2.15;;
53503;SDS011;39387;50.998;22.340;2023-06-14T12:15:15;3.78;;;2.17;;
53503;SDS011;39387;50.998;22.340;2023-06-14T12:17:43;3.00;;;2.30;;
53503;SDS011;39387;50.998;22.340;2023-06-14T12:20:12;2.65;;;2.03;;
53503;SDS011;39387;50.998;22.340;2023-06-14T12:22:51;2.42;;;2.20;;
53503;SDS011;39387;50.998;22.340;2023-06-14T12:25:29;3.00;;;2.10;;
53503;SDS011;39387;50.998;22.340;2023-06-14T12:28:00;2.50;;;2.30;;
53503;SDS011;39387;50.998;22.340;2023-06-14T12:30:31;5.18;;;3.00;;
53503;SDS011;39387;50.998;22.340;2023-06-14T12:32:59;2.47;;;2.28;;
53503;SDS011;39387;50.998;22.340;2023-06-14T12:35:27;3.08;;;2.55;;
53503;SDS011;39387;50.998;22.340;2023-06-14T12:37:54;2.83;;;2.53;;
53503;SDS011;39387;50.998;22.340;2023-06-14T12:40:22;2.53;;;2.22;;
53503;SDS011;39387;50.998;22.340;2023-06-14T12:42:49;3.28;;;2.90;;
53503;SDS011;39387;50.998;22.340;2023-06-14T12:45:18;2.45;;;2.03;;
53503;SDS011;39387;50.998;22.340;2023-06-14T12:47:45;3.92;;;2.40;;
53503;SDS011;39387;50.998;22.340;2023-06-14T12:50:13;4.30;;;2.42;;
53503;SDS011;39387;50.998;22.340;2023-06-14T12:52:40;2.58;;;2.30;;
53503;SDS011;39387;50.998;22.340;2023-06-14T12:55:08;4.68;;;2.67;;
53503;SDS011;39387;50.998;22.340;2023-06-14T12:57:35;3.08;;;2.28;;
53503;SDS011;39387;50.998;22.340;2023-06-14T13:00:04;2.67;;;2.00;;
53503;SDS011;39387;50.998;22.340;2023-06-14T13:02:34;3.30;;;2.20;;
53503;SDS011;39387;50.998;22.340;2023-06-14T13:05:02;3.90;;;2.50;;
53503;SDS011;39387;50.998;22.340;2023-06-14T13:07:30;3.83;;;2.72;;
53503;SDS011;39387;50.998;22.340;2023-06-14T13:09:57;3.47;;;2.72;;
53503;SDS011;39387;50.998;22.340;2023-06-14T13:12:25;3.47;;;2.75;;
53503;SDS011;39387;50.998;22.340;2023-06-14T13:14:52;2.95;;;2.58;;
53503;SDS011;39387;50.998;22.340;2023-06-14T13:17:20;3.40;;;2.80;;
53503;SDS011;39387;50.998;22.340;2023-06-14T13:19:49;5.13;;;2.85;;
53503;SDS011;39387;50.998;22.340;2023-06-14T13:22:16;4.35;;;2.85;;
53503;SDS011;39387;50.998;22.340;2023-06-14T13:24:43;3.00;;;2.70;;
53503;SDS011;39387;50.998;22.340;2023-06-14T13:27:11;2.67;;;2.40;;
53503;SDS011;39387;50.998;22.340;2023-06-14T13:29:40;2.78;;;2.45;;
53503;SDS011;39387;50.998;22.340;2023-06-14T13:32:07;3.72;;;2.63;;
53503;SDS011;39387;50.998;22.340;2023-06-14T13:34:35;2.83;;;2.42;;
53503;SDS011;39387;50.998;22.340;2023-06-14T13:37:03;2.53;;;2.33;;
53503;SDS011;39387;50.998;22.340;2023-06-14T13:39:31;4.18;;;2.50;;
53503;SDS011;39387;50.998;22.340;2023-06-14T13:41:58;2.72;;;2.10;;
53503;SDS011;39387;50.998;22.340;2023-06-14T13:44:26;2.50;;;2.30;;
53503;SDS011;39387;50.998;22.340;2023-06-14T13:46:53;2.55;;;2.35;;
53503;SDS011;39387;50.998;22.340;2023-06-14T13:49:21;3.47;;;2.50;;
53503;SDS011;39387;50.998;22.340;2023-06-14T13:51:48;2.72;;;2.47;;
53503;SDS011;39387;50.998;22.340;2023-06-14T13:54:18;3.03;;;2.72;;
53503;SDS011;39387;50.998;22.340;2023-06-14T13:56:47;3.13;;;2.58;;
53503;SDS011;39387;50.998;22.340;2023-06-14T13:59:14;2.75;;;2.50;;
53503;SDS011;39387;50.998;22.340;2023-06-14T14:01:44;3.92;;;2.80;;
53503;SDS011;39387;50.998;22.340;2023-06-14T14:04:11;3.15;;;2.85;;
53503;SDS011;39387;50.998;22.340;2023-06-14T14:06:39;4.45;;;3.15;;
53503;SDS011;39387;50.998;22.340;2023-06-14T14:09:07;3.30;;;3.00;;
53503;SDS011;39387;50.998;22.340;2023-06-14T14:11:36;3.33;;;3.03;;
53503;SDS011;39387;50.998;22.340;2023-06-14T14:14:05;3.47;;;2.80;;
53503;SDS011;39387;50.998;22.340;2023-06-14T14:16:33;3.28;;;2.80;;
53503;SDS011;39387;50.998;22.340;2023-06-14T14:19:00;3.88;;;3.10;;
53503;SDS011;39387;50.998;22.340;2023-06-14T14:21:28;3.67;;;3.30;;
53503;SDS011;39387;50.998;22.340;2023-06-14T14:23:55;3.42;;;3.13;;
53503;SDS011;39387;50.998;22.340;2023-06-14T14:26:22;4.32;;;2.72;;
53503;SDS011;39387;50.998;22.340;2023-06-14T14:28:52;2.90;;;2.70;;
53503;SDS011;39387;50.998;22.340;2023-06-14T14:31:19;2.78;;;2.40;;
53503;SDS011;39387;50.998;22.340;2023-06-14T14:33:46;3.67;;;2.40;;
53503;SDS011;39387;50.998;22.340;2023-06-14T14:36:14;4.80;;;2.90;;
53503;SDS011;39387;50.998;22.340;2023-06-14T14:38:41;3.92;;;3.28;;
53503;SDS011;39387;50.998;22.340;2023-06-14T14:41:08;4.57;;;3.35;;
53503;SDS011;39387;50.998;22.340;2023-06-14T14:43:38;4.20;;;3.42;;
53503;SDS011;39387;50.998;22.340;2023-06-14T14:46:06;3.97;;;3.30;;
53503;SDS011;39387;50.998;22.340;2023-06-14T14:48:34;3.72;;;3.17;;
53503;SDS011;39387;50.998;22.340;2023-06-14T14:51:01;3.20;;;2.90;;
53503;SDS011;39387;50.998;22.340;2023-06-14T14:53:29;2.83;;;2.63;;
53503;SDS011;39387;50.998;22.340;2023-06-14T14:55:56;4.10;;;2.80;;
53503;SDS011;39387;50.998;22.340;2023-06-14T14:58:24;3.65;;;2.67;;